Time;durP1;ratioP1;P1;durP2;ratioP2;P2;SDS_P1;SDS_P2;PMS_P1;PMS_P2;Temp;Humidity;BMP_temperature;BMP_pressure;BME280_temperature;BME280_humidity;BME280_pressure;Samples;Min_cycle;Max_cycle;Signal;HPM_P1;HPM_P2
2024/01/11 00:00:21;;;;;;;39.38;18.40;;;-1.00;99.90;;;;;;4130305;28;20380;-67
2024/01/11 00:02:21;;;;;;;38.38;17.60;;;-1.00;99.90;;;;;;4142282;28;20038;-74
2024/01/11 00:04:22;;;;;;;40.67;17.55;;;-1.00;99.90;;;;;;4144963;28;20026;-74
2024/01/11 00:06:23;;;;;;;40.72;17.00;;;-1.00;99.90;;;;;;4137193;28;20481;-75
2024/01/11 00:08:23;;;;;;;44.13;18.95;;;-1.00;99.90;;;;;;4144977;28;20065;-75
2024/01/11 00:10:24;;;;;;;42.92;18.17;;;-1.10;99.90;;;;;;4145196;28;20038;-74
2024/01/11 00:12:24;;;;;;;40.72;19.23;;;-1.00;99.90;;;;;;4144950;28;20034;-75
2024/01/11 00:14:25;;;;;;;38.95;18.00;;;-1.00;99.90;;;;;;4145856;28;20038;-75
2024/01/11 00:16:26;;;;;;;39.47;18.83;;;-1.00;99.90;;;;;;4135482;28;20478;-74
2024/01/11 00:18:26;;;;;;;39.13;17.70;;;-1.00;99.90;;;;;;4143512;28;20029;-75
2024/01/11 00:20:27;;;;;;;44.15;19.08;;;-1.10;99.90;;;;;;4144804;28;20029;-75
2024/01/11 00:22:28;;;;;;;39.08;18.40;;;-1.10;99.90;;;;;;4145954;28;20041;-74
2024/01/11 00:24:28;;;;;;;44.13;18.90;;;-1.10;99.90;;;;;;4144726;28;20062;-74
2024/01/11 00:26:29;;;;;;;41.65;18.30;;;-1.10;99.90;;;;;;4133313;28;20035;-74
2024/01/11 00:28:30;;;;;;;43.70;19.55;;;-1.10;99.90;;;;;;4138185;28;20517;-74
2024/01/11 00:30:30;;;;;;;39.47;18.33;;;-1.10;99.90;;;;;;4144760;28;20042;-74
2024/01/11 00:32:31;;;;;;;41.65;18.20;;;-1.10;99.90;;;;;;4144369;28;20033;-74
2024/01/11 00:34:32;;;;;;;41.03;18.45;;;-1.10;99.90;;;;;;4145588;28;20956;-74
2024/01/11 00:36:34;;;;;;;38.28;18.38;;;-1.10;99.90;;;;;;4140494;28;20045;-73
2024/01/11 00:38:35;;;;;;;40.85;18.55;;;-1.10;99.90;;;;;;4139853;28;20038;-73
2024/01/11 00:40:35;;;;;;;38.05;17.98;;;-1.10;99.90;;;;;;4127946;28;20037;-73
2024/01/11 00:42:36;;;;;;;37.72;16.83;;;-1.10;99.90;;;;;;4131789;28;20069;-73
2024/01/11 00:44:36;;;;;;;40.15;18.35;;;-1.10;99.90;;;;;;4141342;28;20120;-73
2024/01/11 00:46:38;;;;;;;43.22;18.30;;;-1.10;99.90;;;;;;4135822;28;20133;-73
2024/01/11 00:48:38;;;;;;;39.88;18.35;;;-1.10;99.90;;;;;;4145603;28;20582;-74
2024/01/11 00:50:39;;;;;;;43.38;19.52;;;-1.10;99.90;;;;;;4143824;28;20030;-74
2024/01/11 00:52:39;;;;;;;46.05;20.15;;;-1.10;99.90;;;;;;4143955;28;20034;-74
2024/01/11 00:54:40;;;;;;;41.40;18.98;;;-1.10;99.90;;;;;;4144381;28;20122;-73
2024/01/11 00:56:41;;;;;;;37.05;17.60;;;-1.20;99.90;;;;;;4139441;28;20030;-73
2024/01/11 00:58:41;;;;;;;42.35;18.55;;;-1.10;99.90;;;;;;4129345;28;20042;-73
2024/01/11 01:00:42;;;;;;;40.22;17.98;;;-1.20;99.90;;;;;;4136265;28;20038;-73
2024/01/11 01:02:43;;;;;;;37.40;17.38;;;-1.10;99.90;;;;;;4145151;28;20165;-70
2024/01/11 01:04:44;;;;;;;45.25;19.38;;;-1.20;99.90;;;;;;4143753;28;20556;-73
2024/01/11 01:06:45;;;;;;;40.88;18.20;;;-1.20;99.90;;;;;;4132895;28;20042;-72
2024/01/11 01:08:45;;;;;;;43.05;18.70;;;-1.20;99.90;;;;;;4131819;28;20031;-73
2024/01/11 01:10:46;;;;;;;38.40;18.90;;;-1.20;99.90;;;;;;4144110;28;20149;-73
2024/01/11 01:12:46;;;;;;;39.85;19.05;;;-1.20;99.90;;;;;;4142040;28;20069;-67
2024/01/11 01:14:47;;;;;;;44.17;20.02;;;-1.20;99.90;;;;;;4143387;28;20045;-67
2024/01/11 01:16:47;;;;;;;43.70;19.33;;;-1.20;99.90;;;;;;4137492;28;20030;-67
2024/01/11 01:18:48;;;;;;;41.97;19.70;;;-1.20;99.90;;;;;;4133171;28;20492;-68
2024/01/11 01:20:49;;;;;;;42.58;20.48;;;-1.20;99.90;;;;;;4140776;28;20037;-68
2024/01/11 01:22:49;;;;;;;43.22;18.92;;;-1.30;99.90;;;;;;4143068;28;20033;-68
2024/01/11 01:24:50;;;;;;;47.25;20.48;;;-1.30;99.90;;;;;;4143586;28;20108;-68
2024/01/11 01:26:51;;;;;;;41.28;19.48;;;-1.20;99.90;;;;;;4133793;28;20034;-68
2024/01/11 01:28:51;;;;;;;43.05;19.15;;;-1.30;99.90;;;;;;4128077;28;20069;-67
2024/01/11 01:30:52;;;;;;;50.67;21.20;;;-1.30;99.90;;;;;;4131944;28;20337;-68
2024/01/11 01:32:53;;;;;;;48.22;21.80;;;-1.30;99.90;;;;;;4137886;28;20045;-67
2024/01/11 01:34:53;;;;;;;53.15;23.13;;;-1.30;99.90;;;;;;4142109;28;20030;-68
2024/01/11 01:36:54;;;;;;;48.85;21.70;;;-1.40;99.90;;;;;;4130932;28;20525;-68
2024/01/11 01:38:54;;;;;;;52.10;22.80;;;-1.40;99.90;;;;;;4144049;28;20569;-67
2024/01/11 01:40:55;;;;;;;44.63;20.70;;;-1.40;99.90;;;;;;4143965;28;20038;-67
2024/01/11 01:43:02;;;;;;;48.08;21.33;;;-1.40;99.90;;;;;;4132768;28;20030;-67
2024/01/11 01:45:03;;;;;;;44.83;21.27;;;-1.40;99.90;;;;;;4141844;28;20034;-67
2024/01/11 01:47:04;;;;;;;44.03;21.00;;;-1.40;99.90;;;;;;4131402;28;20794;-67
2024/01/11 01:49:05;;;;;;;47.63;22.27;;;-1.40;99.90;;;;;;4140364;28;20046;-67
2024/01/11 01:51:06;;;;;;;47.70;20.20;;;-1.40;99.90;;;;;;4142980;28;20026;-67
2024/01/11 01:53:07;;;;;;;47.45;20.98;;;-1.40;99.90;;;;;;4143135;28;20360;-67
2024/01/11 01:55:10;;;;;;;46.90;20.88;;;-1.40;99.90;;;;;;4140759;28;20680;-68
2024/01/11 01:57:11;;;;;;;50.85;22.15;;;-1.50;99.90;;;;;;4132986;28;20045;-67
2024/01/11 01:59:13;;;;;;;53.00;22.85;;;-1.50;99.90;;;;;;4133739;28;20033;-67
2024/01/11 02:01:15;;;;;;;48.05;22.40;;;-1.50;99.90;;;;;;4135552;28;20030;-68
2024/01/11 02:03:16;;;;;;;45.03;20.93;;;-1.60;99.90;;;;;;4131998;28;20037;-68
2024/01/11 02:05:17;;;;;;;45.95;20.65;;;-1.50;99.90;;;;;;4137746;28;20132;-67
2024/01/11 02:07:19;;;;;;;45.28;20.75;;;-1.50;99.90;;;;;;4136827;28;20923;-67
2024/01/11 02:09:20;;;;;;;48.85;20.55;;;-1.50;99.90;;;;;;4142156;28;20442;-67
2024/01/11 02:11:23;;;;;;;46.53;21.88;;;-1.50;99.90;;;;;;4143243;28;20032;-67
2024/01/11 02:13:23;;;;;;;;;;;-1.50;99.90;;;;;;4141503;28;20026;-67
2024/01/11 02:15:24;;;;;;;47.17;20.25;;;-1.50;99.90;;;;;;4137252;28;20881;-67
2024/01/11 02:17:24;;;;;;;45.63;20.38;;;-1.50;99.90;;;;;;4142041;28;20255;-67
2024/01/11 02:19:25;;;;;;;49.97;21.50;;;-1.50;99.90;;;;;;4144012;28;20477;-67
2024/01/11 02:21:28;;;;;;;49.33;20.77;;;-1.50;99.90;;;;;;4142657;28;20053;-68
2024/01/11 02:23:30;;;;;;;47.22;22.00;;;-1.60;99.90;;;;;;4144207;28;20034;-63
2024/01/11 02:25:30;;;;;;;48.03;19.33;;;-1.50;99.90;;;;;;4133155;28;20038;-63
2024/01/11 02:27:31;;;;;;;48.63;22.42;;;-1.50;99.90;;;;;;4135527;28;20041;-63
2024/01/11 02:29:32;;;;;;;46.22;20.73;;;-1.50;99.90;;;;;;4143744;28;20022;-63
2024/01/11 02:31:32;;;;;;;48.85;22.02;;;-1.60;99.90;;;;;;4141798;28;20040;-63
2024/01/11 02:33:33;;;;;;;46.70;20.25;;;-1.60;99.90;;;;;;4144501;28;20085;-73
2024/01/11 02:35:35;;;;;;;48.75;21.38;;;-1.60;99.90;;;;;;4141883;28;20061;-72
2024/01/11 02:37:38;;;;;;;52.00;22.45;;;-1.50;99.90;;;;;;4142043;28;20231;-72
2024/01/11 02:39:39;;;;;;;43.92;20.48;;;-1.60;99.90;;;;;;4143061;28;20119;-72
2024/01/11 02:41:40;;;;;;;49.00;21.45;;;-1.50;99.90;;;;;;4141537;28;20034;-73
2024/01/11 02:43:46;;;;;;;55.35;23.00;;;-1.60;99.90;;;;;;4139232;28;20479;-72
2024/01/11 02:45:46;;;;;;;43.33;20.08;;;-1.60;99.90;;;;;;4138073;28;20143;-71
2024/01/11 02:47:47;;;;;;;44.45;21.25;;;-1.60;99.90;;;;;;4142777;28;20054;-71
2024/01/11 02:49:47;;;;;;;45.35;19.98;;;-1.60;99.90;;;;;;4139445;28;20030;-72
2024/01/11 02:51:48;;;;;;;45.65;21.15;;;-1.60;99.90;;;;;;4142506;28;20061;-72
2024/01/11 02:53:49;;;;;;;48.92;21.48;;;-1.60;99.90;;;;;;4143373;28;20041;-71
2024/01/11 02:55:52;;;;;;;52.65;22.38;;;-1.70;99.90;;;;;;4135411;28;20092;-71
2024/01/11 02:57:53;;;;;;;50.05;22.27;;;-1.70;99.90;;;;;;4135291;28;20100;-72
2024/01/11 02:59:53;;;;;;;50.65;21.77;;;-1.70;99.90;;;;;;4127576;28;20501;-72
2024/01/11 03:01:54;;;;;;;54.47;23.83;;;-1.70;99.90;;;;;;4134032;28;20145;-72
2024/01/11 03:03:56;;;;;;;47.35;21.55;;;-1.80;99.90;;;;;;4143966;28;20034;-72
2024/01/11 03:05:56;;;;;;;46.97;21.58;;;-1.80;99.90;;;;;;4134726;28;20504;-72
2024/01/11 03:07:57;;;;;;;49.22;21.90;;;-1.80;99.90;;;;;;4129312;28;20055;-72
2024/01/11 03:09:57;;;;;;;48.75;20.73;;;-1.90;99.90;;;;;;4133808;28;20060;-72
2024/01/11 03:11:58;;;;;;;48.83;21.85;;;-1.90;99.90;;;;;;4142463;28;20188;-72
2024/01/11 03:13:59;;;;;;;49.17;22.13;;;-1.90;99.90;;;;;;4129927;28;20035;-72
2024/01/11 03:15:59;;;;;;;42.40;20.05;;;-1.90;99.90;;;;;;4133707;28;20038;-72
2024/01/11 03:18:00;;;;;;;46.67;21.38;;;-1.90;99.90;;;;;;4142099;28;20398;-72
2024/01/11 03:20:00;;;;;;;47.88;20.65;;;-1.90;99.90;;;;;;4133088;28;20458;-72
2024/01/11 03:22:06;;;;;;;44.53;20.83;;;-1.90;99.90;;;;;;4135676;28;20037;-72
2024/01/11 03:24:06;;;;;;;49.90;21.98;;;-1.90;99.90;;;;;;4143984;28;20030;-72
2024/01/11 03:26:15;;;;;;;43.00;19.00;;;-1.90;99.90;;;;;;4138498;28;20528;-73
2024/01/11 03:28:16;;;;;;;41.40;19.85;;;-1.90;99.90;;;;;;4142401;28;20048;-71
2024/01/11 03:30:16;;;;;;;46.10;20.27;;;-1.90;99.90;;;;;;4142597;28;20053;-72
2024/01/11 03:32:17;;;;;;;50.35;21.00;;;-1.90;99.90;;;;;;4143131;28;20038;-71
2024/01/11 03:34:18;;;;;;;51.25;21.20;;;-1.90;99.90;;;;;;4143297;28;20505;-73
2024/01/11 03:36:22;;;;;;;47.40;21.58;;;-1.90;99.90;;;;;;4132780;28;20026;-71
2024/01/11 03:38:23;;;;;;;45.25;20.30;;;-2.00;99.90;;;;;;4142474;28;20390;-72
2024/01/11 03:40:23;;;;;;;44.80;21.35;;;-1.90;99.90;;;;;;4142406;28;20246;-71
2024/01/11 03:42:24;;;;;;;49.45;21.92;;;-2.00;99.90;;;;;;4141200;28;20040;-66
2024/01/11 03:44:25;;;;;;;49.83;21.85;;;-2.00;99.90;;;;;;4145383;28;20172;-66
2024/01/11 03:46:25;;;;;;;48.35;21.90;;;-2.00;99.90;;;;;;4133993;28;20402;-66
2024/01/11 03:48:26;;;;;;;50.95;22.25;;;-2.00;99.90;;;;;;4131451;28;20829;-66
2024/01/11 03:50:26;;;;;;;48.00;21.00;;;-2.10;99.90;;;;;;4145344;28;20040;-66
2024/01/11 03:52:27;;;;;;;49.22;21.85;;;-2.10;99.90;;;;;;4145627;28;20034;-71
2024/01/11 03:54:27;;;;;;;46.30;20.80;;;-2.10;99.90;;;;;;4145119;28;20034;-66
2024/01/11 03:56:28;;;;;;;47.45;21.55;;;-2.10;99.90;;;;;;4139644;28;20056;-66
2024/01/11 03:58:29;;;;;;;51.63;21.92;;;-2.10;99.90;;;;;;4130044;28;20453;-66
2024/01/11 04:00:29;;;;;;;48.78;21.60;;;-2.10;99.90;;;;;;4131365;28;20072;-66
2024/01/11 04:02:30;;;;;;;52.40;22.33;;;-2.10;99.90;;;;;;4133454;28;20093;-66
2024/01/11 04:04:30;;;;;;;50.53;22.08;;;-2.10;99.90;;;;;;4144441;28;20034;-66
2024/01/11 04:06:31;;;;;;;49.83;23.02;;;-2.10;99.90;;;;;;4142035;28;20041;-66
2024/01/11 04:08:31;;;;;;;51.15;22.52;;;-2.20;99.90;;;;;;4145160;28;20037;-66
2024/01/11 04:10:32;;;;;;;54.38;23.58;;;-2.20;99.90;;;;;;4144068;28;20468;-66
2024/01/11 04:12:33;;;;;;;49.00;22.70;;;-2.20;99.90;;;;;;4132786;28;20034;-66
2024/01/11 04:14:33;;;;;;;48.92;22.13;;;-2.20;99.90;;;;;;4130892;28;20061;-66
2024/01/11 04:16:39;;;;;;;50.15;22.52;;;-2.20;99.90;;;;;;4136214;28;20065;-66
2024/01/11 04:18:39;;;;;;;55.00;22.08;;;-2.20;99.90;;;;;;4126712;28;20472;-66
2024/01/11 04:20:40;;;;;;;49.80;22.38;;;-2.20;99.90;;;;;;4126411;28;20034;-66
2024/01/11 04:22:40;;;;;;;54.55;23.67;;;-2.20;99.90;;;;;;4139069;28;20088;-66
2024/01/11 04:24:43;;;;;;;50.78;22.20;;;-2.20;99.90;;;;;;4142155;28;20541;-65
2024/01/11 04:26:43;;;;;;;51.08;20.98;;;-2.20;99.90;;;;;;4136042;28;20043;-66
2024/01/11 04:28:46;;;;;;;48.63;21.92;;;-2.20;99.90;;;;;;4129776;28;20036;-66
2024/01/11 04:30:46;;;;;;;50.90;21.23;;;-2.20;99.90;;;;;;4135624;28;20037;-67
2024/01/11 04:32:47;;;;;;;49.72;22.42;;;-2.20;99.90;;;;;;4144695;28;20515;-66
2024/01/11 04:34:48;;;;;;;44.42;19.67;;;-2.10;99.90;;;;;;4144406;28;20033;-66
2024/01/11 04:36:48;;;;;;;51.35;20.92;;;-2.10;99.90;;;;;;4134592;28;20041;-67
2024/01/11 04:38:49;;;;;;;48.85;21.30;;;-2.10;99.90;;;;;;4145843;28;20037;-67
2024/01/11 04:40:49;;;;;;;47.17;21.50;;;-2.10;99.90;;;;;;4140999;28;20096;-69
2024/01/11 04:42:50;;;;;;;50.10;21.85;;;-2.10;99.90;;;;;;4144851;28;20037;-67
2024/01/11 04:44:50;;;;;;;50.05;21.65;;;-2.20;99.90;;;;;;4143290;28;20137;-66
2024/01/11 04:46:51;;;;;;;43.13;20.95;;;-2.20;99.90;;;;;;4132397;28;20514;-66
2024/01/11 04:48:53;;;;;;;48.95;21.83;;;-2.20;99.90;;;;;;4145149;28;20057;-66
2024/01/11 04:50:54;;;;;;;;;;;-2.20;99.90;;;;;;4138211;28;20033;-67
2024/01/11 04:52:54;;;;;;;47.35;20.83;;;-2.20;99.90;;;;;;4135631;28;19922;-66
2024/01/11 04:54:55;;;;;;;47.65;21.92;;;-2.20;99.90;;;;;;4134697;28;20042;-66
2024/01/11 04:56:55;;;;;;;50.83;21.60;;;-2.20;99.90;;;;;;4136500;28;20044;-66
2024/01/11 04:58:56;;;;;;;50.70;21.45;;;-2.20;99.90;;;;;;4136884;28;20042;-67
2024/01/11 05:00:57;;;;;;;46.75;21.63;;;-2.20;99.90;;;;;;4135375;28;20046;-66
2024/01/11 05:02:57;;;;;;;50.22;21.90;;;-2.20;99.90;;;;;;4142435;28;20138;-64
2024/01/11 05:04:58;;;;;;;50.35;21.48;;;-2.20;99.90;;;;;;4141061;28;20046;-63
2024/01/11 05:06:58;;;;;;;47.92;22.15;;;-2.20;99.90;;;;;;4139465;28;20410;-64
2024/01/11 05:08:59;;;;;;;49.17;21.73;;;-2.30;99.90;;;;;;4137596;28;20046;-63
2024/01/11 05:11:00;;;;;;;46.75;21.75;;;-2.20;99.90;;;;;;4141503;28;20023;-63
2024/01/11 05:13:00;;;;;;;50.40;21.45;;;-2.30;99.90;;;;;;4133217;28;20026;-66
2024/01/11 05:15:01;;;;;;;49.13;22.08;;;-2.30;99.90;;;;;;4135887;28;20176;-66
2024/01/11 05:17:02;;;;;;;50.35;21.60;;;-2.30;99.90;;;;;;4137782;28;20034;-66
2024/01/11 05:19:02;;;;;;;46.67;20.77;;;-2.30;99.90;;;;;;4139577;28;20044;-66
2024/01/11 05:21:03;;;;;;;45.83;20.92;;;-2.30;99.90;;;;;;4142554;28;20030;-66
2024/01/11 05:23:03;;;;;;;57.58;23.90;;;-2.30;99.90;;;;;;4140757;28;20026;-67
2024/01/11 05:25:04;;;;;;;53.72;22.80;;;-2.30;99.90;;;;;;4140068;28;20041;-69
2024/01/11 05:27:05;;;;;;;52.05;21.92;;;-2.40;99.90;;;;;;4136757;28;20045;-67
2024/01/11 05:29:06;;;;;;;56.47;24.42;;;-2.40;99.90;;;;;;4142401;28;20402;-66
2024/01/11 05:31:11;;;;;;;50.50;22.58;;;-2.40;99.90;;;;;;4138461;28;20119;-66
2024/01/11 05:33:11;;;;;;;49.97;21.48;;;-2.40;99.90;;;;;;4141371;28;20049;-66
2024/01/11 05:35:12;;;;;;;52.80;22.88;;;-2.40;99.90;;;;;;4139779;28;20447;-66
2024/01/11 05:37:12;;;;;;;47.92;21.88;;;-2.40;99.90;;;;;;4141658;28;20401;-66
2024/01/11 05:39:13;;;;;;;54.55;23.02;;;-2.50;99.90;;;;;;4141989;28;20409;-67
2024/01/11 05:41:14;;;;;;;47.58;21.58;;;-2.40;99.90;;;;;;4143120;28;20040;-66
2024/01/11 05:43:14;;;;;;;51.22;22.42;;;-2.50;99.90;;;;;;4139438;28;20037;-66
2024/01/11 05:45:18;;;;;;;50.63;21.92;;;-2.50;99.90;;;;;;4146302;28;20046;-67
2024/01/11 05:47:18;;;;;;;54.42;22.60;;;-2.50;99.90;;;;;;4141261;28;20054;-67
2024/01/11 05:49:19;;;;;;;55.08;24.27;;;-2.50;99.90;;;;;;4132180;28;20045;-67
2024/01/11 05:51:19;;;;;;;51.03;21.55;;;-2.50;99.90;;;;;;4138880;28;20045;-70
2024/01/11 05:53:20;;;;;;;51.30;21.95;;;-2.50;99.90;;;;;;4138132;28;20142;-67
2024/01/11 05:55:21;;;;;;;51.25;23.08;;;-2.50;99.90;;;;;;4129063;28;20542;-66
2024/01/11 05:57:21;;;;;;;56.55;22.15;;;-2.50;99.90;;;;;;4131121;28;20100;-67
2024/01/11 05:59:22;;;;;;;53.08;22.17;;;-2.50;99.90;;;;;;4139170;28;20042;-67
2024/01/11 06:01:23;;;;;;;54.50;22.70;;;-2.50;99.90;;;;;;4140872;28;20065;-66
2024/01/11 06:03:24;;;;;;;50.67;21.73;;;-2.50;99.90;;;;;;4142859;28;20053;-66
2024/01/11 06:05:25;;;;;;;46.85;21.88;;;-2.60;99.90;;;;;;4135932;28;20114;-66
2024/01/11 06:07:26;;;;;;;51.03;21.75;;;-2.60;99.90;;;;;;4137923;28;20038;-66
2024/01/11 06:09:27;;;;;;;52.95;22.45;;;-2.70;99.90;;;;;;4130103;28;20128;-66
2024/01/11 06:11:28;;;;;;;49.30;21.05;;;-2.70;99.90;;;;;;4136321;28;20041;-66
2024/01/11 06:13:28;;;;;;;47.97;20.13;;;-2.70;99.90;;;;;;4128348;28;20030;-66
2024/01/11 06:15:29;;;;;;;43.95;19.80;;;-2.70;99.90;;;;;;4137801;28;20041;-66
2024/01/11 06:17:29;;;;;;;49.17;20.33;;;-2.70;99.90;;;;;;4156912;28;20038;-66
2024/01/11 06:19:30;;;;;;;46.80;22.05;;;-2.70;99.90;;;;;;4136426;28;20129;-66
2024/01/11 06:21:31;;;;;;;49.55;20.23;;;-2.70;99.90;;;;;;4139472;28;20092;-66
2024/01/11 06:23:32;;;;;;;46.22;21.45;;;-2.70;99.90;;;;;;4136862;28;20151;-72
2024/01/11 06:25:32;;;;;;;46.47;20.40;;;-2.70;99.90;;;;;;4135977;28;20034;-72
2024/01/11 06:27:33;;;;;;;41.72;19.50;;;-2.60;99.90;;;;;;4140397;28;20113;-72
2024/01/11 06:29:34;;;;;;;43.35;18.88;;;-2.60;99.90;;;;;;4141074;28;20038;-71
2024/01/11 06:31:34;;;;;;;39.25;18.33;;;-2.60;99.90;;;;;;4141200;28;20076;-72
2024/01/11 06:33:36;;;;;;;41.78;20.13;;;-2.60;99.90;;;;;;4133963;28;20034;-73
2024/01/11 06:35:37;;;;;;;44.75;20.23;;;-2.60;99.90;;;;;;4124289;28;20118;-72
2024/01/11 06:37:38;;;;;;;44.92;19.77;;;-2.60;99.90;;;;;;4124278;28;20448;-72
2024/01/11 06:39:38;;;;;;;45.55;19.73;;;-2.50;99.90;;;;;;4135926;28;20038;-71
2024/01/11 06:41:39;;;;;;;45.20;20.48;;;-2.50;99.90;;;;;;4138539;28;20034;-73
2024/01/11 06:43:40;;;;;;;49.17;21.75;;;-2.50;99.90;;;;;;4143939;28;20085;-70
2024/01/11 06:45:44;;;;;;;44.30;20.75;;;-2.50;99.90;;;;;;4138426;28;20470;-71
2024/01/11 06:47:46;;;;;;;40.30;19.08;;;-2.50;99.90;;;;;;4141408;28;20042;-72
2024/01/11 06:49:46;;;;;;;46.45;20.80;;;-2.50;99.90;;;;;;4141751;28;20033;-73
2024/01/11 06:51:47;;;;;;;43.17;19.08;;;-2.50;99.90;;;;;;4143736;28;20030;-72
2024/01/11 06:53:47;;;;;;;42.95;18.42;;;-2.50;99.90;;;;;;4133062;28;20802;-72
2024/01/11 06:55:48;;;;;;;42.63;19.10;;;-2.50;99.90;;;;;;4123814;28;20609;-72
2024/01/11 06:57:49;;;;;;;45.13;19.85;;;-2.50;99.90;;;;;;4136510;28;20091;-72
2024/01/11 06:59:50;;;;;;;48.15;21.15;;;-2.50;99.90;;;;;;4129979;28;20034;-71
2024/01/11 07:01:51;;;;;;;49.25;22.02;;;-2.50;99.90;;;;;;4135843;28;20073;-72
2024/01/11 07:03:51;;;;;;;47.22;20.63;;;-2.60;99.90;;;;;;4137725;28;20410;-72
2024/01/11 07:05:52;;;;;;;49.40;22.08;;;-2.60;99.90;;;;;;4137777;28;20188;-72
2024/01/11 07:07:53;;;;;;;47.13;21.05;;;-2.60;99.90;;;;;;4135325;28;20054;-72
2024/01/11 07:09:55;;;;;;;45.35;21.15;;;-2.60;99.90;;;;;;4137754;28;20049;-72
2024/01/11 07:11:56;;;;;;;45.10;21.08;;;-2.60;99.90;;;;;;4135571;28;20377;-72
2024/01/11 07:13:56;;;;;;;47.60;20.38;;;-2.60;99.90;;;;;;4139377;28;20042;-72
2024/01/11 07:15:58;;;;;;;51.60;20.05;;;-2.60;99.90;;;;;;4135475;28;20081;-72
2024/01/11 07:17:59;;;;;;;40.97;19.17;;;-2.60;99.90;;;;;;4139133;28;20494;-71
2024/01/11 07:19:59;;;;;;;43.75;19.52;;;-2.60;99.90;;;;;;4140160;28;20045;-71
2024/01/11 07:22:00;;;;;;;42.05;18.08;;;-2.60;99.90;;;;;;4140533;28;20038;-71
2024/01/11 07:24:01;;;;;;;44.08;19.73;;;-2.50;99.90;;;;;;4141776;28;20117;-71
2024/01/11 07:26:02;;;;;;;51.08;20.95;;;-2.60;99.90;;;;;;4138704;28;20049;-72
2024/01/11 07:28:03;;;;;;;44.60;20.23;;;-2.60;99.90;;;;;;4138913;28;20191;-72
2024/01/11 07:30:06;;;;;;;48.42;20.67;;;-2.60;99.90;;;;;;4141904;28;20038;-72
2024/01/11 07:32:06;;;;;;;48.92;20.33;;;-2.60;99.90;;;;;;4141076;28;20041;-63
2024/01/11 07:34:07;;;;;;;50.55;21.27;;;-2.70;99.90;;;;;;4141728;28;20053;-71
2024/01/11 07:36:09;;;;;;;47.08;22.23;;;-2.70;99.90;;;;;;4138396;28;20029;-70
2024/01/11 07:38:09;;;;;;;47.63;21.23;;;-2.70;99.90;;;;;;4136125;28;20042;-70
2024/01/11 07:40:10;;;;;;;46.70;18.23;;;-2.70;99.90;;;;;;4132001;28;20042;-71
2024/01/11 07:42:11;;;;;;;46.13;20.23;;;-2.70;99.90;;;;;;4141870;28;20552;-71
2024/01/11 07:44:12;;;;;;;43.00;19.77;;;-2.60;99.90;;;;;;4139645;28;20038;-71
2024/01/11 07:46:12;;;;;;;44.45;18.67;;;-2.60;99.90;;;;;;4139039;28;20046;-71
2024/01/11 07:48:13;;;;;;;51.05;20.27;;;-2.60;99.90;;;;;;4135634;28;20054;-70
2024/01/11 07:50:13;;;;;;;45.15;18.58;;;-2.70;99.90;;;;;;4138214;28;20494;-70
2024/01/11 07:52:14;;;;;;;39.45;17.73;;;-2.60;99.90;;;;;;4140318;28;20197;-70
2024/01/11 07:54:15;;;;;;;41.70;17.77;;;-2.60;99.90;;;;;;4137965;28;20504;-70
2024/01/11 07:56:15;;;;;;;45.58;18.90;;;-2.60;99.90;;;;;;4138880;28;20042;-70
2024/01/11 07:58:16;;;;;;;44.22;19.65;;;-2.50;99.90;;;;;;4139370;28;20026;-70
2024/01/11 08:00:17;;;;;;;43.20;18.90;;;-2.50;99.90;;;;;;4141302;28;20041;-70
2024/01/11 08:02:17;;;;;;;42.83;18.63;;;-2.50;99.90;;;;;;4136096;28;20030;-70
2024/01/11 08:04:18;;;;;;;46.33;20.42;;;-2.50;99.90;;;;;;4141568;28;20562;-70
2024/01/11 08:06:18;;;;;;;42.17;19.48;;;-2.50;99.90;;;;;;4138681;28;20040;-70
2024/01/11 08:08:19;;;;;;;47.63;20.27;;;-2.50;99.90;;;;;;4138385;28;20694;-70
2024/01/11 08:10:19;;;;;;;46.38;20.50;;;-2.50;99.90;;;;;;4140727;28;20052;-70
2024/01/11 08:12:20;;;;;;;42.53;19.15;;;-2.40;99.90;;;;;;4138547;28;20026;-70
2024/01/11 08:14:21;;;;;;;39.13;17.67;;;-2.40;99.90;;;;;;4132426;28;20037;-70
2024/01/11 08:16:22;;;;;;;39.22;18.50;;;-2.30;99.90;;;;;;4132206;28;20065;-70
2024/01/11 08:18:22;;;;;;;43.00;18.73;;;-2.20;99.90;;;;;;4132970;28;20048;-70
2024/01/11 08:20:23;;;;;;;44.15;19.00;;;-2.00;99.90;;;;;;4129309;28;20049;-70
2024/01/11 08:22:23;;;;;;;44.13;19.35;;;-1.80;99.90;;;;;;4147985;28;20525;-70
2024/01/11 08:24:24;;;;;;;36.85;17.90;;;-1.50;99.90;;;;;;4133029;28;20060;-70
2024/01/11 08:26:25;;;;;;;39.83;18.77;;;-1.20;99.90;;;;;;4136436;28;20046;-70
2024/01/11 08:28:26;;;;;;;46.25;20.52;;;-0.80;99.90;;;;;;4139017;28;20490;-71
2024/01/11 08:30:26;;;;;;;44.40;19.45;;;-0.50;99.90;;;;;;4136648;28;20523;-71
2024/01/11 08:32:27;;;;;;;50.88;21.33;;;-0.30;99.90;;;;;;4140684;28;20577;-70
2024/01/11 08:34:27;;;;;;;45.72;20.52;;;0.10;99.90;;;;;;4138485;28;20113;-70
2024/01/11 08:36:34;;;;;;;48.10;21.35;;;0.30;99.90;;;;;;4137300;28;20414;-70
2024/01/11 08:38:35;;;;;;;47.47;21.50;;;0.50;99.90;;;;;;4139422;28;20044;-70
2024/01/11 08:40:36;;;;;;;44.72;20.70;;;0.50;99.90;;;;;;4139624;28;20034;-70
2024/01/11 08:42:37;;;;;;;44.88;21.05;;;0.40;99.90;;;;;;4135863;28;20600;-67
2024/01/11 08:44:42;;;;;;;45.13;21.13;;;0.40;99.90;;;;;;4133287;28;20142;-68
2024/01/11 08:46:43;;;;;;;46.70;21.23;;;0.30;99.90;;;;;;4127731;28;20035;-68
2024/01/11 08:48:44;;;;;;;39.55;20.10;;;0.20;99.90;;;;;;4136966;28;20073;-68
2024/01/11 08:50:45;;;;;;;43.70;20.52;;;0.10;99.90;;;;;;4134738;28;20391;-68
2024/01/11 08:52:46;;;;;;;42.28;20.35;;;0.10;99.90;;;;;;4137576;28;20148;-64
2024/01/11 08:54:47;;;;;;;47.22;20.83;;;0.00;99.90;;;;;;4126333;28;20034;-64
2024/01/11 08:56:48;;;;;;;46.70;21.27;;;0.00;99.90;;;;;;4131103;28;20050;-64
2024/01/11 08:58:48;;;;;;;43.25;19.23;;;-0.10;99.90;;;;;;4129831;28;20030;-64
2024/01/11 09:00:49;;;;;;;47.00;20.48;;;-0.10;99.90;;;;;;4128757;28;20034;-64
2024/01/11 09:02:49;;;;;;;46.10;20.25;;;-0.20;99.90;;;;;;4132391;28;20042;-64
2024/01/11 09:04:50;;;;;;;44.65;20.33;;;-0.20;99.90;;;;;;4126675;28;20129;-64
2024/01/11 09:06:51;;;;;;;42.28;20.30;;;-0.30;99.90;;;;;;4134713;28;20041;-64
2024/01/11 09:08:52;;;;;;;43.53;19.95;;;-0.30;99.90;;;;;;4140260;28;20038;-64
2024/01/11 09:10:53;;;;;;;48.33;21.80;;;-0.40;99.90;;;;;;4136719;28;20185;-65
2024/01/11 09:12:54;;;;;;;41.75;20.13;;;-0.40;99.90;;;;;;4139194;28;20561;-64
2024/01/11 09:14:55;;;;;;;44.15;20.05;;;-0.40;99.90;;;;;;4135696;28;20122;-64
2024/01/11 09:16:55;;;;;;;43.33;20.30;;;-0.40;99.90;;;;;;4137674;28;20537;-64
2024/01/11 09:18:56;;;;;;;42.50;20.08;;;-0.40;99.90;;;;;;4140776;28;20142;-64
2024/01/11 09:20:57;;;;;;;45.03;20.42;;;-0.40;99.90;;;;;;4138639;28;20053;-64
2024/01/11 09:22:57;;;;;;;46.30;19.85;;;-0.50;99.90;;;;;;4138905;28;20045;-64
2024/01/11 09:24:58;;;;;;;46.53;20.38;;;-0.40;99.90;;;;;;4140261;28;20042;-64
2024/01/11 09:26:58;;;;;;;39.20;18.98;;;-0.40;99.90;;;;;;4139553;28;20383;-64
2024/01/11 09:28:59;;;;;;;48.05;23.42;;;-0.20;99.90;;;;;;4140201;28;20041;-64
2024/01/11 09:31:01;;;;;;;43.45;20.05;;;0.00;99.90;;;;;;4138721;28;20030;-64
2024/01/11 09:33:02;;;;;;;42.70;20.58;;;0.20;99.90;;;;;;4138490;28;20045;-64
2024/01/11 09:35:04;;;;;;;43.72;20.63;;;0.40;99.90;;;;;;4138060;28;20096;-64
2024/01/11 09:37:05;;;;;;;39.63;20.15;;;0.60;99.90;;;;;;4134921;28;20048;-64
2024/01/11 09:39:05;;;;;;;44.22;20.70;;;0.70;99.90;;;;;;4140020;28;20081;-63
2024/01/11 09:41:13;;;;;;;44.22;21.00;;;1.00;99.90;;;;;;4138848;28;20447;-64
2024/01/11 09:43:14;;;;;;;44.05;21.30;;;1.20;99.90;;;;;;4126241;28;20101;-64
2024/01/11 09:45:16;;;;;;;42.45;21.10;;;1.40;99.90;;;;;;4134783;28;20538;-64
2024/01/11 09:47:17;;;;;;;42.55;20.67;;;1.40;99.90;;;;;;4131236;28;20132;-64
2024/01/11 09:49:21;;;;;;;46.83;22.58;;;1.60;99.90;;;;;;4134013;28;20041;-64
2024/01/11 09:51:23;;;;;;;40.92;20.92;;;1.60;99.90;;;;;;4138224;28;20030;-65
2024/01/11 09:53:26;;;;;;;42.22;20.77;;;1.70;99.90;;;;;;4138947;28;20053;-64
2024/01/11 09:55:26;;;;;;;42.97;21.48;;;1.80;99.90;;;;;;4137854;28;21002;-64
2024/01/11 09:57:32;;;;;;;43.55;22.88;;;1.80;99.90;;;;;;4143042;28;20525;-64
2024/01/11 09:59:35;;;;;;;43.97;21.70;;;1.90;99.90;;;;;;4133741;28;20095;-64
2024/01/11 10:01:36;;;;;;;45.20;21.85;;;2.00;99.90;;;;;;4138011;28;20044;-70
2024/01/11 10:03:39;;;;;;;40.47;21.02;;;1.90;99.90;;;;;;4137816;28;20121;-67
2024/01/11 10:05:41;;;;;;;40.42;21.33;;;1.90;99.90;;;;;;4123211;28;20301;-68
2024/01/11 10:07:42;;;;;;;39.07;20.40;;;2.00;99.90;;;;;;4132501;28;24682;-68
2024/01/11 10:09:42;;;;;;;40.08;20.65;;;2.10;99.90;;;;;;4137365;28;20053;-68
2024/01/11 10:11:44;;;;;;;45.97;21.73;;;2.10;99.90;;;;;;4140158;28;20474;-67
2024/01/11 10:13:45;;;;;;;48.50;22.23;;;2.10;99.90;;;;;;4138282;28;20038;-66